sensor_id;sensor_type;location;lat;lon;timestamp;pressure;altitude;pressure_sealevel;temperature;humidity
80927;BME280;70385;44.538;18.532;2023-10-09T00:00:10;100394.50;;;13.55;75.08
80927;BME280;70385;44.538;18.532;2023-10-09T00:02:55;100391.44;;;13.44;74.08
80927;BME280;70385;44.538;18.532;2023-10-09T00:05:20;100391.25;;;13.27;75.93
80927;BME280;70385;44.538;18.532;2023-10-09T00:07:57;100394.34;;;13.15;75.02
80927;BME280;70385;44.538;18.532;2023-10-09T00:10:23;100394.25;;;12.94;79.08
80927;BME280;70385;44.538;18.532;2023-10-09T00:13:00;100395.06;;;12.73;79.72
80927;BME280;70385;44.538;18.532;2023-10-09T00:15:26;100390.47;;;12.55;80.88
80927;BME280;70385;44.538;18.532;2023-10-09T00:17:53;100389.13;;;12.43;80.35
80927;BME280;70385;44.538;18.532;2023-10-09T00:20:21;100380.69;;;12.35;79.71
80927;BME280;70385;44.538;18.532;2023-10-09T00:22:50;100382.72;;;12.27;82.30
80927;BME280;70385;44.538;18.532;2023-10-09T00:25:16;100385.81;;;12.13;83.83
80927;BME280;70385;44.538;18.532;2023-10-09T00:27:54;100375.78;;;12.01;85.43
80927;BME280;70385;44.538;18.532;2023-10-09T00:30:20;100384.72;;;11.94;83.42
80927;BME280;70385;44.538;18.532;2023-10-09T00:32:55;100367.50;;;11.87;84.54
80927;BME280;70385;44.538;18.532;2023-10-09T00:35:23;100371.16;;;11.82;82.08
80927;BME280;70385;44.538;18.532;2023-10-09T00:38:07;100372.41;;;11.69;85.30
80927;BME280;70385;44.538;18.532;2023-10-09T00:40:59;100376.28;;;11.59;86.95
80927;BME280;70385;44.538;18.532;2023-10-09T00:43:33;100375.25;;;11.63;83.17
80927;BME280;70385;44.538;18.532;2023-10-09T00:46:02;100382.69;;;11.49;85.66
80927;BME280;70385;44.538;18.532;2023-10-09T00:48:38;100374.25;;;11.41;87.56
80927;BME280;70385;44.538;18.532;2023-10-09T00:51:07;100392.16;;;11.27;90.23
80927;BME280;70385;44.538;18.532;2023-10-09T00:53:45;100403.19;;;11.08;93.03
80927;BME280;70385;44.538;18.532;2023-10-09T00:56:18;100400.06;;;10.95;93.99
80927;BME280;70385;44.538;18.532;2023-10-09T00:58:46;100390.06;;;10.80;94.82
80927;BME280;70385;44.538;18.532;2023-10-09T01:01:15;100395.47;;;10.74;94.07
80927;BME280;70385;44.538;18.532;2023-10-09T01:03:42;100399.31;;;10.62;94.96
80927;BME280;70385;44.538;18.532;2023-10-09T01:06:10;100395.09;;;10.57;95.25
80927;BME280;70385;44.538;18.532;2023-10-09T01:08:40;100395.25;;;10.51;95.45
80927;BME280;70385;44.538;18.532;2023-10-09T01:11:13;100398.75;;;10.51;96.17
80927;BME280;70385;44.538;18.532;2023-10-09T01:14:09;100399.03;;;10.41;95.94
80927;BME280;70385;44.538;18.532;2023-10-09T01:16:34;100401.84;;;10.33;98.37
80927;BME280;70385;44.538;18.532;2023-10-09T01:19:00;100399.56;;;10.19;98.37
80927;BME280;70385;44.538;18.532;2023-10-09T01:21:31;100394.47;;;10.15;97.98
80927;BME280;70385;44.538;18.532;2023-10-09T01:23:57;100404.13;;;10.13;98.06
80927;BME280;70385;44.538;18.532;2023-10-09T01:26:38;100379.59;;;10.17;95.06
80927;BME280;70385;44.538;18.532;2023-10-09T01:29:19;100392.75;;;10.14;95.48
80927;BME280;70385;44.538;18.532;2023-10-09T01:31:49;100379.81;;;10.09;95.76
80927;BME280;70385;44.538;18.532;2023-10-09T01:34:26;100389.50;;;10.06;94.42
80927;BME280;70385;44.538;18.532;2023-10-09T01:37:21;100386.28;;;9.94;97.67
80927;BME280;70385;44.538;18.532;2023-10-09T01:39:57;100402.97;;;9.90;95.66
80927;BME280;70385;44.538;18.532;2023-10-09T01:42:46;100390.81;;;9.88;94.22
80927;BME280;70385;44.538;18.532;2023-10-09T01:45:12;100386.38;;;9.91;94.90
80927;BME280;70385;44.538;18.532;2023-10-09T01:47:53;100394.16;;;9.93;95.44
80927;BME280;70385;44.538;18.532;2023-10-09T01:50:22;100390.88;;;9.86;95.53
80927;BME280;70385;44.538;18.532;2023-10-09T01:52:57;100388.50;;;9.76;95.82
80927;BME280;70385;44.538;18.532;2023-10-09T01:55:27;100400.84;;;9.70;95.68
80927;BME280;70385;44.538;18.532;2023-10-09T01:57:59;100410.50;;;9.67;94.69
80927;BME280;70385;44.538;18.532;2023-10-09T02:00:31;100404.50;;;9.62;95.19
80927;BME280;70385;44.538;18.532;2023-10-09T02:03:09;100409.09;;;9.54;96.00
80927;BME280;70385;44.538;18.532;2023-10-09T02:05:52;100402.34;;;9.43;96.95
80927;BME280;70385;44.538;18.532;2023-10-09T02:08:25;100405.06;;;9.39;97.38
80927;BME280;70385;44.538;18.532;2023-10-09T02:10:55;100397.34;;;9.34;97.69
80927;BME280;70385;44.538;18.532;2023-10-09T02:13:24;100392.19;;;9.31;97.38
80927;BME280;70385;44.538;18.532;2023-10-09T02:16:00;100391.31;;;9.32;97.96
80927;BME280;70385;44.538;18.532;2023-10-09T02:18:41;100396.59;;;9.29;99.02
80927;BME280;70385;44.538;18.532;2023-10-09T02:21:22;100397.53;;;9.25;100.00
80927;BME280;70385;44.538;18.532;2023-10-09T02:23:59;100381.91;;;9.24;100.00
80927;BME280;70385;44.538;18.532;2023-10-09T02:26:29;100379.44;;;9.18;99.33
80927;BME280;70385;44.538;18.532;2023-10-09T02:29:04;100384.72;;;9.16;99.29
80927;BME280;70385;44.538;18.532;2023-10-09T02:31:43;100384.78;;;9.13;100.00
80927;BME280;70385;44.538;18.532;2023-10-09T02:34:13;100376.34;;;9.00;100.00
80927;BME280;70385;44.538;18.532;2023-10-09T02:36:41;100382.41;;;9.02;100.00
80927;BME280;70385;44.538;18.532;2023-10-09T02:39:14;100392.94;;;8.98;100.00
80927;BME280;70385;44.538;18.532;2023-10-09T02:41:56;100384.28;;;8.96;100.00
80927;BME280;70385;44.538;18.532;2023-10-09T02:44:37;100378.38;;;8.86;100.00
80927;BME280;70385;44.538;18.532;2023-10-09T02:47:15;100382.72;;;8.89;100.00
80927;BME280;70385;44.538;18.532;2023-10-09T02:49:49;100381.97;;;8.82;100.00
80927;BME280;70385;44.538;18.532;2023-10-09T02:52:16;100382.97;;;8.76;100.00
80927;BME280;70385;44.538;18.532;2023-10-09T02:54:49;100376.03;;;8.75;100.00
80927;BME280;70385;44.538;18.532;2023-10-09T02:57:27;100374.44;;;8.68;100.00
80927;BME280;70385;44.538;18.532;2023-10-09T03:00:05;100362.31;;;8.66;100.00
80927;BME280;70385;44.538;18.532;2023-10-09T03:02:39;100367.63;;;8.61;100.00
80927;BME280;70385;44.538;18.532;2023-10-09T03:05:07;100367.78;;;8.54;100.00
80927;BME280;70385;44.538;18.532;2023-10-09T03:07:38;100359.06;;;8.55;100.00
80927;BME280;70385;44.538;18.532;2023-10-09T03:10:06;100358.41;;;8.43;100.00
80927;BME280;70385;44.538;18.532;2023-10-09T03:12:35;100367.13;;;8.42;100.00
80927;BME280;70385;44.538;18.532;2023-10-09T03:15:02;100374.31;;;8.28;100.00
80927;BME280;70385;44.538;18.532;2023-10-09T03:17:31;100375.25;;;8.26;100.00
80927;BME280;70385;44.538;18.532;2023-10-09T03:20:05;100371.84;;;8.22;100.00
80927;BME280;70385;44.538;18.532;2023-10-09T03:22:39;100365.75;;;8.23;100.00
80927;BME280;70385;44.538;18.532;2023-10-09T03:25:06;100357.09;;;8.21;100.00
80927;BME280;70385;44.538;18.532;2023-10-09T03:27:40;100358.13;;;8.12;100.00
80927;BME280;70385;44.538;18.532;2023-10-09T03:30:13;100362.44;;;8.15;100.00
80927;BME280;70385;44.538;18.532;2023-10-09T03:32:44;100359.91;;;8.10;100.00
80927;BME280;70385;44.538;18.532;2023-10-09T03:35:14;100353.84;;;8.10;100.00
80927;BME280;70385;44.538;18.532;2023-10-09T03:37:43;100345.25;;;8.03;100.00
80927;BME280;70385;44.538;18.532;2023-10-09T03:40:09;100361.97;;;7.93;100.00
80927;BME280;70385;44.538;18.532;2023-10-09T03:42:42;100360.41;;;7.83;100.00
80927;BME280;70385;44.538;18.532;2023-10-09T03:45:08;100342.25;;;7.78;100.00
80927;BME280;70385;44.538;18.532;2023-10-09T03:47:44;100339.69;;;7.77;100.00
80927;BME280;70385;44.538;18.532;2023-10-09T03:50:09;100344.88;;;7.77;100.00
80927;BME280;70385;44.538;18.532;2023-10-09T03:52:52;100338.84;;;7.75;100.00
80927;BME280;70385;44.538;18.532;2023-10-09T03:55:20;100345.78;;;7.76;100.00
80927;BME280;70385;44.538;18.532;2023-10-09T03:57:47;100339.94;;;7.61;100.00
80927;BME280;70385;44.538;18.532;2023-10-09T04:00:14;100346.13;;;7.56;100.00
80927;BME280;70385;44.538;18.532;2023-10-09T04:02:41;100358.31;;;7.54;100.00
80927;BME280;70385;44.538;18.532;2023-10-09T04:05:07;100350.47;;;7.55;100.00
80927;BME280;70385;44.538;18.532;2023-10-09T04:07:33;100341.84;;;7.50;100.00
80927;BME280;70385;44.538;18.532;2023-10-09T04:09:59;100334.97;;;7.46;100.00
80927;BME280;70385;44.538;18.532;2023-10-09T04:13:00;100338.53;;;7.41;100.00
80927;BME280;70385;44.538;18.532;2023-10-09T04:15:29;100342.00;;;7.41;100.00
80927;BME280;70385;44.538;18.532;2023-10-09T04:17:56;100353.31;;;7.40;100.00
80927;BME280;70385;44.538;18.532;2023-10-09T04:20:22;100341.97;;;7.44;100.00
80927;BME280;70385;44.538;18.532;2023-10-09T04:22:48;100351.53;;;7.42;100.00
80927;BME280;70385;44.538;18.532;2023-10-09T04:25:18;100352.53;;;7.35;100.00
80927;BME280;70385;44.538;18.532;2023-10-09T04:27:55;100356.91;;;7.33;100.00
80927;BME280;70385;44.538;18.532;2023-10-09T04:30:40;100344.84;;;7.26;100.00
80927;BME280;70385;44.538;18.532;2023-10-09T04:33:12;100338.66;;;7.35;100.00
80927;BME280;70385;44.538;18.532;2023-10-09T04:36:01;100335.22;;;7.31;100.00
80927;BME280;70385;44.538;18.532;2023-10-09T04:38:51;100328.50;;;7.18;100.00
80927;BME280;70385;44.538;18.532;2023-10-09T04:41:30;100342.41;;;7.17;100.00
80927;BME280;70385;44.538;18.532;2023-10-09T04:44:21;100338.09;;;7.13;100.00
80927;BME280;70385;44.538;18.532;2023-10-09T04:46:56;100339.88;;;7.11;100.00
80927;BME280;70385;44.538;18.532;2023-10-09T04:49:35;100341.56;;;7.13;100.00
80927;BME280;70385;44.538;18.532;2023-10-09T04:52:21;100335.47;;;7.16;100.00
80927;BME280;70385;44.538;18.532;2023-10-09T04:54:56;100337.25;;;7.14;100.00
80927;BME280;70385;44.538;18.532;2023-10-09T04:57:44;100344.16;;;7.15;100.00
80927;BME280;70385;44.538;18.532;2023-10-09T05:00:14;100334.66;;;7.11;100.00
80927;BME280;70385;44.538;18.532;2023-10-09T05:02:54;100340.63;;;7.19;100.00
80927;BME280;70385;44.538;18.532;2023-10-09T05:05:27;100332.88;;;7.16;100.00
80927;BME280;70385;44.538;18.532;2023-10-09T05:08:17;100325.13;;;7.10;100.00
80927;BME280;70385;44.538;18.532;2023-10-09T05:10:54;100329.47;;;7.11;100.00
80927;BME280;70385;44.538;18.532;2023-10-09T05:13:26;100328.63;;;7.09;100.00
80927;BME280;70385;44.538;18.532;2023-10-09T05:16:17;100331.19;;;7.12;100.00
80927;BME280;70385;44.538;18.532;2023-10-09T05:18:58;100345.19;;;7.05;100.00
80927;BME280;70385;44.538;18.532;2023-10-09T05:21:38;100340.81;;;7.07;100.00
80927;BME280;70385;44.538;18.532;2023-10-09T05:24:07;100323.31;;;7.16;100.00
80927;BME280;70385;44.538;18.532;2023-10-09T05:26:40;100320.63;;;7.22;100.00
80927;BME280;70385;44.538;18.532;2023-10-09T05:29:16;100313.75;;;7.18;100.00
80927;BME280;70385;44.538;18.532;2023-10-09T05:31:50;100305.03;;;7.21;100.00
80927;BME280;70385;44.538;18.532;2023-10-09T05:34:28;100303.19;;;7.26;100.00
80927;BME280;70385;44.538;18.532;2023-10-09T05:37:03;100301.38;;;7.31;100.00
80927;BME280;70385;44.538;18.532;2023-10-09T05:39:49;100310.81;;;7.38;100.00
80927;BME280;70385;44.538;18.532;2023-10-09T05:42:45;100315.81;;;7.50;100.00
80927;BME280;70385;44.538;18.532;2023-10-09T05:45:13;100326.13;;;7.56;100.00
80927;BME280;70385;44.538;18.532;2023-10-09T05:47:45;100329.50;;;7.63;100.00
80927;BME280;70385;44.538;18.532;2023-10-09T05:50:31;100315.47;;;7.72;100.00
80927;BME280;70385;44.538;18.532;2023-10-09T05:53:01;100312.66;;;7.82;100.00
80927;BME280;70385;44.538;18.532;2023-10-09T05:55:29;100308.88;;;7.99;100.00
80927;BME280;70385;44.538;18.532;2023-10-09T05:58:13;100304.44;;;8.02;100.00
80927;BME280;70385;44.538;18.532;2023-10-09T06:00:58;100299.91;;;8.13;100.00
80927;BME280;70385;44.538;18.532;2023-10-09T06:03:42;100301.28;;;8.31;100.00
80927;BME280;70385;44.538;18.532;2023-10-09T06:06:17;100285.41;;;8.43;100.00
80927;BME280;70385;44.538;18.532;2023-10-09T06:09:02;100277.13;;;8.63;100.00
80927;BME280;70385;44.538;18.532;2023-10-09T06:11:42;100283.66;;;8.82;100.00
80927;BME280;70385;44.538;18.532;2023-10-09T06:14:18;100282.25;;;9.06;100.00
80927;BME280;70385;44.538;18.532;2023-10-09T06:17:00;100280.88;;;9.27;100.00
80927;BME280;70385;44.538;18.532;2023-10-09T06:19:26;100277.03;;;9.40;100.00
80927;BME280;70385;44.538;18.532;2023-10-09T06:21:59;100271.34;;;9.59;100.00
80927;BME280;70385;44.538;18.532;2023-10-09T06:24:38;100264.94;;;9.70;100.00
80927;BME280;70385;44.538;18.532;2023-10-09T06:27:11;100249.84;;;9.80;100.00
80927;BME280;70385;44.538;18.532;2023-10-09T06:29:39;100261.94;;;9.86;100.00
80927;BME280;70385;44.538;18.532;2023-10-09T06:32:15;100259.66;;;10.04;100.00
80927;BME280;70385;44.538;18.532;2023-10-09T06:34:51;100244.44;;;10.17;100.00
80927;BME280;70385;44.538;18.532;2023-10-09T06:37:21;100251.22;;;10.26;100.00
80927;BME280;70385;44.538;18.532;2023-10-09T06:39:54;100265.28;;;10.20;100.00
80927;BME280;70385;44.538;18.532;2023-10-09T06:45:11;100251.50;;;10.74;100.00
80927;BME280;70385;44.538;18.532;2023-10-09T06:47:43;100249.03;;;10.70;100.00
80927;BME280;70385;44.538;18.532;2023-10-09T06:50:30;100249.78;;;11.01;99.45
80927;BME280;70385;44.538;18.532;2023-10-09T06:53:14;100255.63;;;11.09;98.92
80927;BME280;70385;44.538;18.532;2023-10-09T06:55:40;100260.56;;;11.18;98.27
80927;BME280;70385;44.538;18.532;2023-10-09T06:58:21;100264.91;;;11.19;96.41
80927;BME280;70385;44.538;18.532;2023-10-09T07:00:54;100250.88;;;11.20;96.31
80927;BME280;70385;44.538;18.532;2023-10-09T07:03:27;100249.97;;;11.21;96.11
80927;BME280;70385;44.538;18.532;2023-10-09T07:06:10;100238.50;;;11.50;96.07
80927;BME280;70385;44.538;18.532;2023-10-09T07:09:12;100235.84;;;11.77;93.86
80927;BME280;70385;44.538;18.532;2023-10-09T07:11:43;100244.75;;;11.71;93.95
80927;BME280;70385;44.538;18.532;2023-10-09T07:17:07;100243.81;;;11.99;92.68
80927;BME280;70385;44.538;18.532;2023-10-09T07:20:04;100249.63;;;12.07;92.11
80927;BME280;70385;44.538;18.532;2023-10-09T07:23:03;100237.38;;;12.07;91.54
80927;BME280;70385;44.538;18.532;2023-10-09T07:25:42;100227.78;;;12.30;91.32
80927;BME280;70385;44.538;18.532;2023-10-09T07:28:21;100209.22;;;12.58;89.99
80927;BME280;70385;44.538;18.532;2023-10-09T07:30:56;100214.66;;;12.75;89.37
80927;BME280;70385;44.538;18.532;2023-10-09T07:33:27;100204.22;;;12.73;87.76
80927;BME280;70385;44.538;18.532;2023-10-09T07:36:20;100201.34;;;12.80;87.79
80927;BME280;70385;44.538;18.532;2023-10-09T07:39:02;100200.38;;;13.02;87.28
80927;BME280;70385;44.538;18.532;2023-10-09T07:41:32;100185.47;;;13.25;86.55
80927;BME280;70385;44.538;18.532;2023-10-09T07:43:57;100179.63;;;13.18;87.31
80927;BME280;70385;44.538;18.532;2023-10-09T07:46:23;100168.19;;;13.40;86.40
80927;BME280;70385;44.538;18.532;2023-10-09T07:48:59;100171.50;;;13.63;84.98
80927;BME280;70385;44.538;18.532;2023-10-09T07:51:26;100167.13;;;13.83;84.30
80927;BME280;70385;44.538;18.532;2023-10-09T07:53:59;100165.03;;;14.10;82.04
80927;BME280;70385;44.538;18.532;2023-10-09T07:56:39;100147.03;;;14.19;81.39
80927;BME280;70385;44.538;18.532;2023-10-09T07:59:11;100144.53;;;14.35;80.78
80927;BME280;70385;44.538;18.532;2023-10-09T08:01:40;100142.13;;;14.12;81.18
80927;BME280;70385;44.538;18.532;2023-10-09T08:04:26;100147.03;;;14.01;80.85
80927;BME280;70385;44.538;18.532;2023-10-09T08:07:11;100143.75;;;14.14;80.81
80927;BME280;70385;44.538;18.532;2023-10-09T08:09:52;100130.97;;;14.43;79.65
80927;BME280;70385;44.538;18.532;2023-10-09T08:12:37;100135.38;;;14.61;78.82
80927;BME280;70385;44.538;18.532;2023-10-09T08:15:16;100125.59;;;14.46;79.19
80927;BME280;70385;44.538;18.532;2023-10-09T08:17:55;100111.09;;;14.73;78.35
80927;BME280;70385;44.538;18.532;2023-10-09T08:20:36;100113.09;;;15.03;78.26
80927;BME280;70385;44.538;18.532;2023-10-09T08:23:22;100111.28;;;15.38;76.84
80927;BME280;70385;44.538;18.532;2023-10-09T08:26:07;100097.94;;;15.74;75.17
80927;BME280;70385;44.538;18.532;2023-10-09T08:28:41;100097.69;;;15.94;74.68
80927;BME280;70385;44.538;18.532;2023-10-09T08:31:18;100097.09;;;15.73;74.78
80927;BME280;70385;44.538;18.532;2023-10-09T08:34:12;100088.16;;;15.76;74.36
80927;BME280;70385;44.538;18.532;2023-10-09T08:36:51;100097.78;;;15.77;74.53
80927;BME280;70385;44.538;18.532;2023-10-09T08:39:21;100077.69;;;15.90;74.02
80927;BME280;70385;44.538;18.532;2023-10-09T08:41:55;100089.97;;;16.23;74.08
80927;BME280;70385;44.538;18.532;2023-10-09T08:44:25;100088.41;;;16.34;73.58
80927;BME280;70385;44.538;18.532;2023-10-09T08:46:57;100089.81;;;16.56;72.09
80927;BME280;70385;44.538;18.532;2023-10-09T08:49:25;100076.41;;;16.75;71.38
80927;BME280;70385;44.538;18.532;2023-10-09T08:51:51;100076.59;;;16.72;71.48
80927;BME280;70385;44.538;18.532;2023-10-09T08:54:20;100069.53;;;17.30;69.53
80927;BME280;70385;44.538;18.532;2023-10-09T08:56:47;100076.34;;;17.49;68.80
80927;BME280;70385;44.538;18.532;2023-10-09T08:59:17;100066.00;;;17.02;68.54
80927;BME280;70385;44.538;18.532;2023-10-09T09:01:47;100056.97;;;16.76;70.43
80927;BME280;70385;44.538;18.532;2023-10-09T09:04:40;100049.47;;;16.84;69.54
80927;BME280;70385;44.538;18.532;2023-10-09T09:07:22;100044.97;;;17.00;69.05
80927;BME280;70385;44.538;18.532;2023-10-09T09:09:59;100042.31;;;17.14;69.41
80927;BME280;70385;44.538;18.532;2023-10-09T09:12:44;100054.31;;;17.20;69.41
80927;BME280;70385;44.538;18.532;2023-10-09T09:15:16;100044.97;;;17.28;68.97
80927;BME280;70385;44.538;18.532;2023-10-09T09:18:03;100037.59;;;17.34;67.92
80927;BME280;70385;44.538;18.532;2023-10-09T09:20:32;100029.88;;;17.16;69.43
80927;BME280;70385;44.538;18.532;2023-10-09T09:23:11;100023.06;;;17.55;68.74
80927;BME280;70385;44.538;18.532;2023-10-09T09:25:45;100014.72;;;17.33;68.21
80927;BME280;70385;44.538;18.532;2023-10-09T09:28:14;100020.69;;;18.06;66.64
80927;BME280;70385;44.538;18.532;2023-10-09T09:30:47;100005.59;;;18.20;65.76
80927;BME280;70385;44.538;18.532;2023-10-09T09:33:21;100004.44;;;18.25;66.33
80927;BME280;70385;44.538;18.532;2023-10-09T09:36:08;100007.78;;;18.41;64.91
80927;BME280;70385;44.538;18.532;2023-10-09T09:38:37;100010.44;;;18.93;63.70
80927;BME280;70385;44.538;18.532;2023-10-09T09:41:26;100007.88;;;18.79;65.22
80927;BME280;70385;44.538;18.532;2023-10-09T09:43:54;100005.88;;;18.43;64.19
80927;BME280;70385;44.538;18.532;2023-10-09T09:46:23;100002.41;;;18.55;64.43
80927;BME280;70385;44.538;18.532;2023-10-09T09:49:03;99996.00;;;18.32;65.16
80927;BME280;70385;44.538;18.532;2023-10-09T09:51:31;99990.81;;;18.43;64.94
80927;BME280;70385;44.538;18.532;2023-10-09T09:53:57;99974.25;;;18.27;65.48
80927;BME280;70385;44.538;18.532;2023-10-09T09:56:29;99980.56;;;18.52;65.82
80927;BME280;70385;44.538;18.532;2023-10-09T09:58:58;99987.28;;;18.83;64.70
80927;BME280;70385;44.538;18.532;2023-10-09T10:01:29;99972.06;;;18.59;65.38
80927;BME280;70385;44.538;18.532;2023-10-09T10:04:28;99966.34;;;18.53;66.29
80927;BME280;70385;44.538;18.532;2023-10-09T10:07:03;99960.00;;;19.06;64.16
80927;BME280;70385;44.538;18.532;2023-10-09T10:09:39;99958.63;;;19.75;62.54
80927;BME280;70385;44.538;18.532;2023-10-09T10:12:05;99951.13;;;20.04;61.96
80927;BME280;70385;44.538;18.532;2023-10-09T10:14:54;99955.34;;;19.95;60.47
80927;BME280;70385;44.538;18.532;2023-10-09T10:20:25;99926.75;;;19.75;61.81
80927;BME280;70385;44.538;18.532;2023-10-09T10:23:14;99929.97;;;20.50;59.90
80927;BME280;70385;44.538;18.532;2023-10-09T10:25:43;99924.88;;;20.47;61.69
80927;BME280;70385;44.538;18.532;2023-10-09T10:28:26;99927.94;;;20.99;59.13
80927;BME280;70385;44.538;18.532;2023-10-09T10:31:05;99913.16;;;21.50;57.31
80927;BME280;70385;44.538;18.532;2023-10-09T10:36:26;99911.06;;;21.97;56.05
80927;BME280;70385;44.538;18.532;2023-10-09T10:39:08;99905.25;;;22.03;55.31
80927;BME280;70385;44.538;18.532;2023-10-09T10:41:55;99903.38;;;21.40;55.60
80927;BME280;70385;44.538;18.532;2023-10-09T10:44:28;99888.41;;;21.05;57.01
80927;BME280;70385;44.538;18.532;2023-10-09T10:47:09;99885.59;;;21.18;57.57
80927;BME280;70385;44.538;18.532;2023-10-09T10:50:02;99873.53;;;21.25;56.92
80927;BME280;70385;44.538;18.532;2023-10-09T10:53:12;99863.88;;;20.90;58.33
80927;BME280;70385;44.538;18.532;2023-10-09T10:55:59;99867.44;;;21.45;57.47
80927;BME280;70385;44.538;18.532;2023-10-09T10:58:41;99851.72;;;21.20;57.11
80927;BME280;70385;44.538;18.532;2023-10-09T11:01:37;99834.00;;;20.76;58.58
80927;BME280;70385;44.538;18.532;2023-10-09T11:04:23;99830.09;;;21.57;57.77
80927;BME280;70385;44.538;18.532;2023-10-09T11:06:56;99823.41;;;21.94;56.62
80927;BME280;70385;44.538;18.532;2023-10-09T11:09:51;99820.16;;;21.59;56.55
80927;BME280;70385;44.538;18.532;2023-10-09T11:12:44;99801.38;;;21.71;55.40
80927;BME280;70385;44.538;18.532;2023-10-09T11:15:37;99802.22;;;22.34;55.60
80927;BME280;70385;44.538;18.532;2023-10-09T11:18:10;99790.84;;;22.32;56.42
80927;BME280;70385;44.538;18.532;2023-10-09T11:20:50;99798.09;;;22.91;54.50
80927;BME280;70385;44.538;18.532;2023-10-09T11:23:43;99791.38;;;22.87;54.30
80927;BME280;70385;44.538;18.532;2023-10-09T11:26:18;99800.44;;;23.15;53.84
80927;BME280;70385;44.538;18.532;2023-10-09T11:29:11;99782.59;;;23.25;52.76
80927;BME280;70385;44.538;18.532;2023-10-09T11:32:01;99775.97;;;23.49;53.68
80927;BME280;70385;44.538;18.532;2023-10-09T11:34:33;99755.34;;;23.60;53.05
80927;BME280;70385;44.538;18.532;2023-10-09T11:37:03;99756.03;;;23.34;53.04
80927;BME280;70385;44.538;18.532;2023-10-09T11:39:39;99734.63;;;23.91;52.68
80927;BME280;70385;44.538;18.532;2023-10-09T11:42:19;99738.78;;;24.13;52.82
80927;BME280;70385;44.538;18.532;2023-10-09T11:45:21;99726.72;;;24.00;52.57
80927;BME280;70385;44.538;18.532;2023-10-09T11:47:52;99722.75;;;24.13;51.29
80927;BME280;70385;44.538;18.532;2023-10-09T11:53:12;99720.69;;;23.88;51.75
80927;BME280;70385;44.538;18.532;2023-10-09T11:58:25;99705.97;;;23.45;55.62
80927;BME280;70385;44.538;18.532;2023-10-09T12:03:31;99686.59;;;24.46;52.62
80927;BME280;70385;44.538;18.532;2023-10-09T12:06:03;99683.53;;;24.41;53.41
80927;BME280;70385;44.538;18.532;2023-10-09T12:08:38;99682.53;;;24.70;52.77
80927;BME280;70385;44.538;18.532;2023-10-09T12:11:07;99685.25;;;24.60;52.10
80927;BME280;70385;44.538;18.532;2023-10-09T12:13:37;99679.44;;;24.65;53.85
80927;BME280;70385;44.538;18.532;2023-10-09T12:16:04;99676.56;;;24.76;52.96
80927;BME280;70385;44.538;18.532;2023-10-09T12:18:41;99661.34;;;24.94;52.35
80927;BME280;70385;44.538;18.532;2023-10-09T12:21:08;99663.31;;;24.57;52.17
80927;BME280;70385;44.538;18.532;2023-10-09T12:23:41;99655.91;;;24.86;51.59
80927;BME280;70385;44.538;18.532;2023-10-09T12:26:09;99657.97;;;24.74;52.02
80927;BME280;70385;44.538;18.532;2023-10-09T12:28:40;99646.69;;;25.16;51.78
80927;BME280;70385;44.538;18.532;2023-10-09T12:31:15;99650.69;;;24.67;53.39
80927;BME280;70385;44.538;18.532;2023-10-09T12:33:45;99643.13;;;23.70;53.86
80927;BME280;70385;44.538;18.532;2023-10-09T12:36:12;99634.06;;;24.18;53.79
80927;BME280;70385;44.538;18.532;2023-10-09T12:38:46;99645.84;;;24.25;52.92
80927;BME280;70385;44.538;18.532;2023-10-09T12:41:16;99638.50;;;23.72;54.32
80927;BME280;70385;44.538;18.532;2023-10-09T12:43:52;99630.44;;;24.64;53.66
80927;BME280;70385;44.538;18.532;2023-10-09T12:46:21;99628.47;;;25.20;52.74
80927;BME280;70385;44.538;18.532;2023-10-09T12:48:52;99618.06;;;24.99;50.84
80927;BME280;70385;44.538;18.532;2023-10-09T12:51:20;99610.66;;;25.62;50.28
80927;BME280;70385;44.538;18.532;2023-10-09T12:53:47;99616.78;;;25.47;50.55
80927;BME280;70385;44.538;18.532;2023-10-09T12:56:20;99617.00;;;24.92;51.74
80927;BME280;70385;44.538;18.532;2023-10-09T12:58:47;99589.59;;;25.16;52.20
80927;BME280;70385;44.538;18.532;2023-10-09T13:01:21;99595.19;;;24.33;52.96
80927;BME280;70385;44.538;18.532;2023-10-09T13:03:47;99590.91;;;24.13;53.81
80927;BME280;70385;44.538;18.532;2023-10-09T13:06:15;99591.63;;;23.78;55.95
80927;BME280;70385;44.538;18.532;2023-10-09T13:08:49;99582.25;;;23.64;55.99
80927;BME280;70385;44.538;18.532;2023-10-09T13:11:15;99579.41;;;24.03;56.30
80927;BME280;70385;44.538;18.532;2023-10-09T13:13:45;99574.09;;;24.20;56.14
80927;BME280;70385;44.538;18.532;2023-10-09T13:16:18;99570.91;;;24.17;55.23
80927;BME280;70385;44.538;18.532;2023-10-09T13:18:56;99567.19;;;24.81;53.05
80927;BME280;70385;44.538;18.532;2023-10-09T13:21:25;99561.78;;;24.73;53.52
80927;BME280;70385;44.538;18.532;2023-10-09T13:23:52;99554.44;;;24.75;54.20
80927;BME280;70385;44.538;18.532;2023-10-09T13:26:21;99549.84;;;25.03;52.37
80927;BME280;70385;44.538;18.532;2023-10-09T13:28:58;99550.56;;;25.65;52.82
80927;BME280;70385;44.538;18.532;2023-10-09T13:31:26;99557.63;;;26.08;50.57
80927;BME280;70385;44.538;18.532;2023-10-09T13:33:53;99562.84;;;26.18;50.78
80927;BME280;70385;44.538;18.532;2023-10-09T13:36:25;99548.88;;;26.89;48.93
80927;BME280;70385;44.538;18.532;2023-10-09T13:39:02;99542.19;;;26.02;49.73
80927;BME280;70385;44.538;18.532;2023-10-09T13:41:49;99543.06;;;26.11;50.12
80927;BME280;70385;44.538;18.532;2023-10-09T13:44:29;99543.84;;;25.95;51.42